Pearl Of Scandinavia — OWFU2 — position and weather

sailwx.info

Track history (hours):
 
Tides and Currents Weather Stations Pressure Air Temp Water Temp Dewpoint Dewpoint Depression Visibility Wind Speed Wind Dir Waves Ship Positions

Pearl Of Scandinavia

Last reported at 2016-Aug-29 04:34 UTC. Time now 2016-Aug-29 05:26 UTC.
Position N 59°12' E 010°39'.

Length 176.4 m; beam 34 m; draft 6.215 m.

Type: Ship. MMSI: 219945000.

Date/timePositionNaut miles runAvg speedWind from/ knotsBaromVisibWave heightAir tempDewpointWater temp
2016-Aug-29 04:34N 59°12' E 010°39'1716.6
2016-Aug-29 03:33N 58°55' E 010°43'1616.1
2016-Aug-29 02:33N 58°39' E 010°47'1615.8
2016-Aug-29 01:34N 58°24' E 010°56'2415.9
2016-Aug-29 00:05N 58°02' E 011°10'916.6
2016-Aug-28 23:34N 57°54' E 011°15'1515.4
2016-Aug-28 22:33N 57°39' E 011°24'1615.6
2016-Aug-28 21:33N 57°24' E 011°32'1615.9
2016-Aug-28 20:34N 57°09' E 011°40'1616.1
2016-Aug-28 19:33N 56°53' E 011°49'1616.3
2016-Aug-28 18:33N 56°40' E 012°06'1515.4
2016-Aug-28 17:34N 56°26' E 012°18'1616.2
2016-Aug-28 16:33N 56°11' E 012°30'1716.8
2016-Aug-28 15:33N 55°56' E 012°44'1414.2
2016-Aug-28 14:33N 55°43' E 012°37'1 0.7
2016-Aug-28 13:32N 55°42' E 012°36'0 0.0
2016-Aug-28 12:32N 55°42' E 012°36'0 0.0
2016-Aug-28 11:32N 55°42' E 012°36'0 0.0
2016-Aug-28 10:32N 55°42' E 012°36'0 0.0
2016-Aug-28 09:32N 55°42' E 012°36'0 0.0
2016-Aug-28 08:32N 55°42' E 012°36'0 0.3
2016-Aug-28 07:34N 55°42' E 012°36'1212.0
2016-Aug-28 06:34N 55°54' E 012°39'1414.1
2016-Aug-28 05:34N 56°07' E 012°31'1815.2
2016-Aug-28 04:21N 56°25' E 012°20'1215.7
2016-Aug-28 03:33N 56°37' E 012°15'1615.8
2016-Aug-28 02:33N 56°52' E 012°09'1616.2
2016-Aug-28 01:33N 57°07' E 011°57'1616.4
2016-Aug-28 00:33N 57°22' E 011°42'1717.0
2016-Aug-27 23:34N 57°36' E 011°27'1716.9
2016-Aug-27 22:33N 57°51' E 011°13'1615.9
2016-Aug-27 21:33N 58°06' E 011°01'1515.4
2016-Aug-27 20:33N 58°21' E 010°53'1615.5
2016-Aug-27 19:33N 58°36' E 010°49'1716.6
2016-Aug-27 18:34N 58°53' E 010°44'1716.8
2016-Aug-27 17:34N 59°09' E 010°38'1717.1
2016-Aug-27 16:34N 59°26' E 010°33'1514.9
2016-Aug-27 15:34N 59°41' E 010°36'12 1.7
2016-Aug-27 08:33N 59°53' E 010°39'1514.9
2016-Aug-27 07:33N 59°38' E 010°38'1717.1
2016-Aug-27 06:33N 59°21' E 010°36'3618.1
2016-Aug-27 04:33N 58°45' E 010°46'1817.8
2016-Aug-27 03:33N 58°27' E 010°48'15 7.1
2016-Aug-27 01:28N 58°14' E 011°01'9 7.4
2016-Aug-27 00:17N 58°06' E 011°08'1216.4
2016-Aug-26 23:33N 57°54' E 011°15'1616.3
2016-Aug-26 22:34N 57°39' E 011°24'1616.0
2016-Aug-26 21:34N 57°23' E 011°32'1716.5
2016-Aug-26 20:33N 57°07' E 011°41'1616.1
2016-Aug-26 19:33N 56°52' E 011°51'1615.8
2016-Aug-26 18:33N 56°39' E 012°06'1615.7
2016-Aug-26 17:33N 56°25' E 012°19'1717.0
2016-Aug-26 16:33N 56°09' E 012°31'1716.6
2016-Aug-26 15:33N 55°54' E 012°44'1313.2
2016-Aug-26 14:34N 55°42' E 012°36'0 0.0
2016-Aug-26 13:31N 55°42' E 012°36'0 0.0
2016-Aug-26 12:31N 55°42' E 012°36'0 0.0
2016-Aug-26 11:31N 55°42' E 012°36'0 0.0
2016-Aug-26 10:31N 55°42' E 012°36'0 0.0
2016-Aug-26 09:31N 55°42' E 012°36'0 0.0
2016-Aug-26 08:31N 55°42' E 012°36'3 3.3
2016-Aug-26 07:34N 55°44' E 012°40'1414.0
2016-Aug-26 06:34N 55°58' E 012°40'2914.7
2016-Aug-26 04:34N 56°25' E 012°19'1616.4
2016-Aug-26 03:34N 56°41' E 012°10'1616.4
2016-Aug-26 02:34N 56°56' E 012°01'1717.1
2016-Aug-26 01:33N 57°13' E 011°52'1616.4
2016-Aug-26 00:34N 57°26' E 011°34'1616.4
2016-Aug-25 23:33N 57°41' E 011°21'1716.9
2016-Aug-25 22:33N 57°56' E 011°07'1716.8
2016-Aug-25 21:33N 58°11' E 010°54'1616.2
2016-Aug-25 20:32N 58°26' E 010°41'1615.8
2016-Aug-25 19:34N 58°42' E 010°38'1717.1
2016-Aug-25 18:34N 58°59' E 010°38'1717.4
2016-Aug-25 17:34N 59°16' E 010°36'1313.1
2016-Aug-25 16:34N 59°29' E 010°34'1413.9
2016-Aug-25 15:33N 59°43' E 010°34'11 1.4
2016-Aug-25 07:23N 59°54' E 010°41'1214.5
2016-Aug-25 06:33N 59°42' E 010°36'3215.9
2016-Aug-25 04:33N 59°10' E 010°39'1716.9
2016-Aug-25 03:34N 58°53' E 010°43'1716.7
2016-Aug-25 02:34N 58°37' E 010°48'1916.4
2016-Aug-25 01:25N 58°19' E 010°59'1516.7
2016-Aug-25 00:33N 58°05' E 011°07'1615.9
2016-Aug-24 23:33N 57°50' E 011°16'1515.4
2016-Aug-24 22:33N 57°36' E 011°24'1616.0
2016-Aug-24 21:33N 57°20' E 011°33'1615.6
2016-Aug-24 20:33N 57°05' E 011°42'1615.6
2016-Aug-24 19:33N 56°51' E 011°53'1615.5
2016-Aug-24 18:33N 56°38' E 012°08'1615.5
2016-Aug-24 17:32N 56°24' E 012°20'1616.1
2016-Aug-24 16:33N 56°09' E 012°31'1515.4
2016-Aug-24 15:33N 55°56' E 012°44'1313.4
2016-Aug-24 14:33N 55°43' E 012°37'1 0.9
2016-Aug-24 13:33N 55°42' E 012°36'0 0.0
2016-Aug-24 12:33N 55°42' E 012°36'0 0.0
2016-Aug-24 11:33N 55°42' E 012°36'0 0.0
2016-Aug-24 10:33N 55°42' E 012°36'0 0.0
2016-Aug-24 09:33N 55°42' E 012°36'0 0.0
2016-Aug-24 08:33N 55°42' E 012°36'0 0.2
2016-Aug-24 07:33N 55°42' E 012°36'1010.4
2016-Aug-24 06:33N 55°52' E 012°40'2914.2
2016-Aug-24 04:31N 56°19' E 012°22'1515.7
2016-Aug-24 03:33N 56°34' E 012°13'1615.9
2016-Aug-24 02:33N 56°49' E 012°05'1615.9
2016-Aug-24 01:33N 57°04' E 011°56'1616.3
2016-Aug-24 00:33N 57°19' E 011°45'1717.0
2016-Aug-23 23:33N 57°34' E 011°30'1817.7
2016-Aug-23 22:33N 57°49' E 011°13'1817.6
2016-Aug-23 21:33N 58°06' E 010°60'2317.5
2016-Aug-23 20:13N 58°27' E 010°41'1116.5
2016-Aug-23 19:33N 58°37' E 010°38'1716.6
2016-Aug-23 18:33N 58°54' E 010°37'1616.4
2016-Aug-23 17:33N 59°10' E 010°38'1616.4
2016-Aug-23 16:33N 59°27' E 010°33'1514.8
2016-Aug-23 15:33N 59°41' E 010°36'13 1.5
2016-Aug-23 07:21N 59°54' E 010°41'1114.1
2016-Aug-23 06:34N 59°43' E 010°35'1414.2
2016-Aug-23 05:33N 59°29' E 010°35'1615.8
2016-Aug-23 04:33N 59°13' E 010°38'1615.9
2016-Aug-23 03:33N 58°57' E 010°42'1615.6
2016-Aug-23 02:33N 58°42' E 010°45'1616.0
2016-Aug-23 01:33N 58°26' E 010°54'1715.9
2016-Aug-23 00:31N 58°11' E 011°04'1516.0
2016-Aug-22 23:33N 57°56' E 011°12'1616.1
2016-Aug-22 22:33N 57°41' E 011°22'1615.8
2016-Aug-22 21:33N 57°26' E 011°30'1616.0
2016-Aug-22 20:33N 57°10' E 011°39'1615.8
2016-Aug-22 19:33N 56°55' E 011°48'1615.7
2016-Aug-22 18:33N 56°42' E 012°03'1615.6
2016-Aug-22 17:33N 56°28' E 012°16'1717.4
2016-Aug-22 16:33N 56°12' E 012°29'1717.3
2016-Aug-22 15:33N 55°57' E 012°43'1514.7
2016-Aug-22 14:33N 55°43' E 012°37'1 1.0
2016-Aug-22 13:33N 55°42' E 012°36'0 0.0
2016-Aug-22 12:33N 55°42' E 012°36'0 0.0
2016-Aug-22 11:33N 55°42' E 012°36'0 0.0
2016-Aug-22 10:33N 55°42' E 012°36'0 0.0
2016-Aug-22 09:33N 55°42' E 012°36'0 0.0
2016-Aug-22 08:33N 55°42' E 012°36'0 0.3
2016-Aug-22 07:33N 55°42' E 012°36'1010.2
2016-Aug-22 06:34N 55°52' E 012°40'1413.9
2016-Aug-22 05:34N 56°06' E 012°34'3015.0
2016-Aug-22 03:33N 56°34' E 012°15'1616.0
2016-Aug-22 02:33N 56°49' E 012°07'1615.9
2016-Aug-22 01:33N 57°04' E 011°58'1616.1
2016-Aug-22 00:32N 57°19' E 011°46'1616.1
2016-Aug-21 23:34N 57°33' E 011°31'1716.5
2016-Aug-21 22:33N 57°48' E 011°18'1716.7
2016-Aug-21 21:32N 58°04' E 011°08'1716.9
2016-Aug-21 20:33N 58°20' E 010°60'1616.4
2016-Aug-21 19:33N 58°35' E 010°51'1716.7
2016-Aug-21 18:33N 58°52' E 010°44'1717.5
2016-Aug-21 17:33N 59°09' E 010°39'1717.2
2016-Aug-21 16:33N 59°26' E 010°33'1515.0
2016-Aug-21 15:34N 59°41' E 010°37'13 1.6
2016-Aug-21 07:22N 59°54' E 010°41'1114.0
2016-Aug-21 06:34N 59°43' E 010°35'1414.1
2016-Aug-21 05:34N 59°29' E 010°34'1616.4
2016-Aug-21 04:33N 59°12' E 010°38'1616.5
2016-Aug-21 03:33N 58°56' E 010°44'1615.9
2016-Aug-21 02:33N 58°41' E 010°49'1716.7
2016-Aug-21 01:34N 58°24' E 010°56'1816.6
2016-Aug-21 00:29N 58°07' E 011°06'1516.0
2016-Aug-20 23:33N 57°53' E 011°15'1616.2
2016-Aug-20 22:33N 57°38' E 011°24'1616.2
2016-Aug-20 21:34N 57°22' E 011°32'1616.4
2016-Aug-20 20:33N 57°06' E 011°42'1616.2
2016-Aug-20 19:33N 56°51' E 011°52'1616.4
2016-Aug-20 18:33N 56°38' E 012°08'1616.3
2016-Aug-20 17:33N 56°23' E 012°21'1818.0
2016-Aug-20 16:33N 56°06' E 012°34'1717.0
2016-Aug-20 15:33N 55°50' E 012°44'9 9.4
2016-Aug-20 14:33N 55°42' E 012°36'0 0.0
2016-Aug-20 13:33N 55°42' E 012°36'0 0.0
2016-Aug-20 12:33N 55°42' E 012°36'0 0.0
2016-Aug-20 11:33N 55°42' E 012°36'0 0.0
2016-Aug-20 10:33N 55°42' E 012°36'0 0.0
2016-Aug-20 09:33N 55°42' E 012°36'0 0.0
2016-Aug-20 08:33N 55°42' E 012°36'0 0.2
2016-Aug-20 07:34N 55°42' E 012°36'1110.5
2016-Aug-20 06:33N 55°53' E 012°40'1313.4
2016-Aug-20 05:33N 56°06' E 012°34'1514.4
2016-Aug-20 04:33N 56°19' E 012°23'1515.5
2016-Aug-20 03:33N 56°34' E 012°16'1616.0
2016-Aug-20 02:33N 56°49' E 012°09'1615.8
2016-Aug-20 01:33N 57°04' E 011°60'1615.7
2016-Aug-20 00:33N 57°18' E 011°47'1615.9
2016-Aug-19 23:33N 57°32' E 011°32'1616.0
2016-Aug-19 22:33N 57°46' E 011°19'1616.1
2016-Aug-19 21:34N 58°02' E 011°10'1817.1
2016-Aug-19 20:32N 58°19' E 011°01'1717.1
2016-Aug-19 19:33N 58°35' E 010°52'1817.8
2016-Aug-19 18:33N 58°52' E 010°44'1817.9
2016-Aug-19 17:34N 59°10' E 010°38'1717.5
2016-Aug-19 16:34N 59°27' E 010°33'1514.8
2016-Aug-19 15:34N 59°42' E 010°36'12 1.5
2016-Aug-19 07:22N 59°54' E 010°41'1214.9
2016-Aug-19 06:33N 59°42' E 010°36'1413.9
2016-Aug-19 05:33N 59°28' E 010°34'  
Track history (hours):
 
Tides and Currents Weather Stations Pressure Air Temp Water Temp Dewpoint Dewpoint Depression Visibility Wind Speed Wind Dir Waves Ship Positions

Pearl Of Scandinavia

Last reported at 2016-Aug-29 04:34 UTC. Time now 2016-Aug-29 05:26 UTC.
Position N 59°12' E 010°39'.

Length 176.4 m; beam 34 m; draft 6.215 m.

Type: Ship. MMSI: 219945000.

Date/timePositionNaut miles runAvg speedWind from/ knotsBaromVisibWave heightAir tempDewpointWater temp
2016-Aug-29 04:34N 59°12' E 010°39'1716.6
2016-Aug-29 03:33N 58°55' E 010°43'1616.1
2016-Aug-29 02:33N 58°39' E 010°47'1615.8
2016-Aug-29 01:34N 58°24' E 010°56'2415.9
2016-Aug-29 00:05N 58°02' E 011°10'916.6
2016-Aug-28 23:34N 57°54' E 011°15'1515.4
2016-Aug-28 22:33N 57°39' E 011°24'1615.6
2016-Aug-28 21:33N 57°24' E 011°32'1615.9
2016-Aug-28 20:34N 57°09' E 011°40'1616.1
2016-Aug-28 19:33N 56°53' E 011°49'1616.3
2016-Aug-28 18:33N 56°40' E 012°06'1515.4
2016-Aug-28 17:34N 56°26' E 012°18'1616.2
2016-Aug-28 16:33N 56°11' E 012°30'1716.8
2016-Aug-28 15:33N 55°56' E 012°44'1414.2
2016-Aug-28 14:33N 55°43' E 012°37'1 0.7
2016-Aug-28 13:32N 55°42' E 012°36'0 0.0
2016-Aug-28 12:32N 55°42' E 012°36'0 0.0
2016-Aug-28 11:32N 55°42' E 012°36'0 0.0
2016-Aug-28 10:32N 55°42' E 012°36'0 0.0
2016-Aug-28 09:32N 55°42' E 012°36'0 0.0
2016-Aug-28 08:32N 55°42' E 012°36'0 0.3
2016-Aug-28 07:34N 55°42' E 012°36'1212.0
2016-Aug-28 06:34N 55°54' E 012°39'1414.1
2016-Aug-28 05:34N 56°07' E 012°31'1815.2
2016-Aug-28 04:21N 56°25' E 012°20'1215.7
2016-Aug-28 03:33N 56°37' E 012°15'1615.8
2016-Aug-28 02:33N 56°52' E 012°09'1616.2
2016-Aug-28 01:33N 57°07' E 011°57'1616.4
2016-Aug-28 00:33N 57°22' E 011°42'1717.0
2016-Aug-27 23:34N 57°36' E 011°27'1716.9
2016-Aug-27 22:33N 57°51' E 011°13'1615.9
2016-Aug-27 21:33N 58°06' E 011°01'1515.4
2016-Aug-27 20:33N 58°21' E 010°53'1615.5
2016-Aug-27 19:33N 58°36' E 010°49'1716.6
2016-Aug-27 18:34N 58°53' E 010°44'1716.8
2016-Aug-27 17:34N 59°09' E 010°38'1717.1
2016-Aug-27 16:34N 59°26' E 010°33'1514.9
2016-Aug-27 15:34N 59°41' E 010°36'12 1.7
2016-Aug-27 08:33N 59°53' E 010°39'1514.9
2016-Aug-27 07:33N 59°38' E 010°38'1717.1
2016-Aug-27 06:33N 59°21' E 010°36'3618.1
2016-Aug-27 04:33N 58°45' E 010°46'1817.8
2016-Aug-27 03:33N 58°27' E 010°48'15 7.1
2016-Aug-27 01:28N 58°14' E 011°01'9 7.4
2016-Aug-27 00:17N 58°06' E 011°08'1216.4
2016-Aug-26 23:33N 57°54' E 011°15'1616.3
2016-Aug-26 22:34N 57°39' E 011°24'1616.0
2016-Aug-26 21:34N 57°23' E 011°32'1716.5
2016-Aug-26 20:33N 57°07' E 011°41'1616.1
2016-Aug-26 19:33N 56°52' E 011°51'1615.8
2016-Aug-26 18:33N 56°39' E 012°06'1615.7
2016-Aug-26 17:33N 56°25' E 012°19'1717.0
2016-Aug-26 16:33N 56°09' E 012°31'1716.6
2016-Aug-26 15:33N 55°54' E 012°44'1313.2
2016-Aug-26 14:34N 55°42' E 012°36'0 0.0
2016-Aug-26 13:31N 55°42' E 012°36'0 0.0
2016-Aug-26 12:31N 55°42' E 012°36'0 0.0
2016-Aug-26 11:31N 55°42' E 012°36'0 0.0
2016-Aug-26 10:31N 55°42' E 012°36'0 0.0
2016-Aug-26 09:31N 55°42' E 012°36'0 0.0
2016-Aug-26 08:31N 55°42' E 012°36'3 3.3
2016-Aug-26 07:34N 55°44' E 012°40'1414.0
2016-Aug-26 06:34N 55°58' E 012°40'2914.7
2016-Aug-26 04:34N 56°25' E 012°19'1616.4
2016-Aug-26 03:34N 56°41' E 012°10'1616.4
2016-Aug-26 02:34N 56°56' E 012°01'1717.1
2016-Aug-26 01:33N 57°13' E 011°52'1616.4
2016-Aug-26 00:34N 57°26' E 011°34'1616.4
2016-Aug-25 23:33N 57°41' E 011°21'1716.9
2016-Aug-25 22:33N 57°56' E 011°07'1716.8
2016-Aug-25 21:33N 58°11' E 010°54'1616.2
2016-Aug-25 20:32N 58°26' E 010°41'1615.8
2016-Aug-25 19:34N 58°42' E 010°38'1717.1
2016-Aug-25 18:34N 58°59' E 010°38'1717.4
2016-Aug-25 17:34N 59°16' E 010°36'1313.1
2016-Aug-25 16:34N 59°29' E 010°34'1413.9
2016-Aug-25 15:33N 59°43' E 010°34'11 1.4
2016-Aug-25 07:23N 59°54' E 010°41'1214.5
2016-Aug-25 06:33N 59°42' E 010°36'3215.9
2016-Aug-25 04:33N 59°10' E 010°39'1716.9
2016-Aug-25 03:34N 58°53' E 010°43'1716.7
2016-Aug-25 02:34N 58°37' E 010°48'1916.4
2016-Aug-25 01:25N 58°19' E 010°59'1516.7
2016-Aug-25 00:33N 58°05' E 011°07'1615.9
2016-Aug-24 23:33N 57°50' E 011°16'1515.4
2016-Aug-24 22:33N 57°36' E 011°24'1616.0
2016-Aug-24 21:33N 57°20' E 011°33'1615.6
2016-Aug-24 20:33N 57°05' E 011°42'1615.6
2016-Aug-24 19:33N 56°51' E 011°53'1615.5
2016-Aug-24 18:33N 56°38' E 012°08'1615.5
2016-Aug-24 17:32N 56°24' E 012°20'1616.1
2016-Aug-24 16:33N 56°09' E 012°31'1515.4
2016-Aug-24 15:33N 55°56' E 012°44'1313.4
2016-Aug-24 14:33N 55°43' E 012°37'1 0.9
2016-Aug-24 13:33N 55°42' E 012°36'0 0.0
2016-Aug-24 12:33N 55°42' E 012°36'0 0.0
2016-Aug-24 11:33N 55°42' E 012°36'0 0.0
2016-Aug-24 10:33N 55°42' E 012°36'0 0.0
2016-Aug-24 09:33N 55°42' E 012°36'0 0.0
2016-Aug-24 08:33N 55°42' E 012°36'0 0.2
2016-Aug-24 07:33N 55°42' E 012°36'1010.4
2016-Aug-24 06:33N 55°52' E 012°40'2914.2
2016-Aug-24 04:31N 56°19' E 012°22'1515.7
2016-Aug-24 03:33N 56°34' E 012°13'1615.9
2016-Aug-24 02:33N 56°49' E 012°05'1615.9
2016-Aug-24 01:33N 57°04' E 011°56'1616.3
2016-Aug-24 00:33N 57°19' E 011°45'1717.0
2016-Aug-23 23:33N 57°34' E 011°30'1817.7
2016-Aug-23 22:33N 57°49' E 011°13'1817.6
2016-Aug-23 21:33N 58°06' E 010°60'2317.5
2016-Aug-23 20:13N 58°27' E 010°41'1116.5
2016-Aug-23 19:33N 58°37' E 010°38'1716.6
2016-Aug-23 18:33N 58°54' E 010°37'1616.4
2016-Aug-23 17:33N 59°10' E 010°38'1616.4
2016-Aug-23 16:33N 59°27' E 010°33'1514.8
2016-Aug-23 15:33N 59°41' E 010°36'13 1.5
2016-Aug-23 07:21N 59°54' E 010°41'1114.1
2016-Aug-23 06:34N 59°43' E 010°35'1414.2
2016-Aug-23 05:33N 59°29' E 010°35'1615.8
2016-Aug-23 04:33N 59°13' E 010°38'1615.9
2016-Aug-23 03:33N 58°57' E 010°42'1615.6
2016-Aug-23 02:33N 58°42' E 010°45'1616.0
2016-Aug-23 01:33N 58°26' E 010°54'1715.9
2016-Aug-23 00:31N 58°11' E 011°04'1516.0
2016-Aug-22 23:33N 57°56' E 011°12'1616.1
2016-Aug-22 22:33N 57°41' E 011°22'1615.8
2016-Aug-22 21:33N 57°26' E 011°30'1616.0
2016-Aug-22 20:33N 57°10' E 011°39'1615.8
2016-Aug-22 19:33N 56°55' E 011°48'1615.7
2016-Aug-22 18:33N 56°42' E 012°03'1615.6
2016-Aug-22 17:33N 56°28' E 012°16'1717.4
2016-Aug-22 16:33N 56°12' E 012°29'1717.3
2016-Aug-22 15:33N 55°57' E 012°43'1514.7
2016-Aug-22 14:33N 55°43' E 012°37'1 1.0
2016-Aug-22 13:33N 55°42' E 012°36'0 0.0
2016-Aug-22 12:33N 55°42' E 012°36'0 0.0
2016-Aug-22 11:33N 55°42' E 012°36'0 0.0
2016-Aug-22 10:33N 55°42' E 012°36'0 0.0
2016-Aug-22 09:33N 55°42' E 012°36'0 0.0
2016-Aug-22 08:33N 55°42' E 012°36'0 0.3
2016-Aug-22 07:33N 55°42' E 012°36'1010.2
2016-Aug-22 06:34N 55°52' E 012°40'1413.9
2016-Aug-22 05:34N 56°06' E 012°34'3015.0
2016-Aug-22 03:33N 56°34' E 012°15'1616.0
2016-Aug-22 02:33N 56°49' E 012°07'1615.9
2016-Aug-22 01:33N 57°04' E 011°58'1616.1
2016-Aug-22 00:32N 57°19' E 011°46'1616.1
2016-Aug-21 23:34N 57°33' E 011°31'1716.5
2016-Aug-21 22:33N 57°48' E 011°18'1716.7
2016-Aug-21 21:32N 58°04' E 011°08'1716.9
2016-Aug-21 20:33N 58°20' E 010°60'1616.4
2016-Aug-21 19:33N 58°35' E 010°51'1716.7
2016-Aug-21 18:33N 58°52' E 010°44'1717.5
2016-Aug-21 17:33N 59°09' E 010°39'1717.2
2016-Aug-21 16:33N 59°26' E 010°33'1515.0
2016-Aug-21 15:34N 59°41' E 010°37'13 1.6
2016-Aug-21 07:22N 59°54' E 010°41'1114.0
2016-Aug-21 06:34N 59°43' E 010°35'1414.1
2016-Aug-21 05:34N 59°29' E 010°34'1616.4
2016-Aug-21 04:33N 59°12' E 010°38'1616.5
2016-Aug-21 03:33N 58°56' E 010°44'1615.9
2016-Aug-21 02:33N 58°41' E 010°49'1716.7
2016-Aug-21 01:34N 58°24' E 010°56'1816.6
2016-Aug-21 00:29N 58°07' E 011°06'1516.0
2016-Aug-20 23:33N 57°53' E 011°15'1616.2
2016-Aug-20 22:33N 57°38' E 011°24'1616.2
2016-Aug-20 21:34N 57°22' E 011°32'1616.4
2016-Aug-20 20:33N 57°06' E 011°42'1616.2
2016-Aug-20 19:33N 56°51' E 011°52'1616.4
2016-Aug-20 18:33N 56°38' E 012°08'1616.3
2016-Aug-20 17:33N 56°23' E 012°21'1818.0
2016-Aug-20 16:33N 56°06' E 012°34'1717.0
2016-Aug-20 15:33N 55°50' E 012°44'9 9.4
2016-Aug-20 14:33N 55°42' E 012°36'0 0.0
2016-Aug-20 13:33N 55°42' E 012°36'0 0.0
2016-Aug-20 12:33N 55°42' E 012°36'0 0.0
2016-Aug-20 11:33N 55°42' E 012°36'0 0.0
2016-Aug-20 10:33N 55°42' E 012°36'0 0.0
2016-Aug-20 09:33N 55°42' E 012°36'0 0.0
2016-Aug-20 08:33N 55°42' E 012°36'0 0.2
2016-Aug-20 07:34N 55°42' E 012°36'1110.5
2016-Aug-20 06:33N 55°53' E 012°40'1313.4
2016-Aug-20 05:33N 56°06' E 012°34'1514.4
2016-Aug-20 04:33N 56°19' E 012°23'1515.5
2016-Aug-20 03:33N 56°34' E 012°16'1616.0
2016-Aug-20 02:33N 56°49' E 012°09'1615.8
2016-Aug-20 01:33N 57°04' E 011°60'1615.7
2016-Aug-20 00:33N 57°18' E 011°47'1615.9
2016-Aug-19 23:33N 57°32' E 011°32'1616.0
2016-Aug-19 22:33N 57°46' E 011°19'1616.1
2016-Aug-19 21:34N 58°02' E 011°10'1817.1
2016-Aug-19 20:32N 58°19' E 011°01'1717.1
2016-Aug-19 19:33N 58°35' E 010°52'1817.8
2016-Aug-19 18:33N 58°52' E 010°44'1817.9
2016-Aug-19 17:34N 59°10' E 010°38'1717.5
2016-Aug-19 16:34N 59°27' E 010°33'1514.8
2016-Aug-19 15:34N 59°42' E 010°36'12 1.5
2016-Aug-19 07:22N 59°54' E 010°41'1214.9
2016-Aug-19 06:33N 59°42' E 010°36'1413.9
2016-Aug-19 05:33N 59°28' E 010°34'  

Dump ship's entire track history